Main page
METAR-TAF:

METAR-TAF

Airports :

RAF Benson

Benson, England

latitude: 51-37N, longitude: 001-05W, elevation: 63 m

Current weather observation

The report was made 38 minutes ago, at 14:50 UTC
Wind 12 kt from the South
Temperature 16°C
Humidity 45%
Pressure 1018 hPa
Visibility 10 km or more

METAR: EGUB 041450Z AUTO 17012KT 9999 // SCT050/// 16/04 Q1018

Time: 16:28 (15:28 UTC)

Forecast

The report was made 26 hours and 3 minutes ago, at 13:25 UTC
Forecast valid from 03 at 15 UTC to 03 at 18 UTC
Wind 6 kt from the North/Northwest
Visibility 10 km or more
Scattered clouds at a height of 4800 ft

TAF: EGUB 031325Z 0315/0318 33006KT 9999 SCT048

Weather observations and forecasts of more than 4000 airports (METAR and TAF reports).

The available stations are represented by yellow and red dots on the map.

Hover mouse over dot to see the name of the station.

Then click to see weather observations and forecasts.

To change the map : click on the green buttons with a black cross to zoom in, on the green button with a dash to zoom out, or on the green arrows for adjacent maps.


METAR-TAF: